createdAt,value
2019-02-02T00:00:04.944Z,990.50
2019-02-02T00:01:04.929Z,990.48
2019-02-02T00:02:04.916Z,990.49
2019-02-02T00:03:04.907Z,990.49
2019-02-02T00:04:04.888Z,990.47
2019-02-02T00:05:04.897Z,990.45
2019-02-02T00:06:04.868Z,990.45
2019-02-02T00:07:04.867Z,990.50
2019-02-02T00:08:04.848Z,990.46
2019-02-02T00:09:04.834Z,990.44
2019-02-02T00:10:04.839Z,990.44
2019-02-02T00:11:04.849Z,990.40
2019-02-02T00:12:04.811Z,990.36
2019-02-02T00:13:04.793Z,990.36
2019-02-02T00:14:04.788Z,990.35
2019-02-02T00:15:04.773Z,990.34
2019-02-02T00:16:04.790Z,990.33
2019-02-02T00:17:04.752Z,990.33
2019-02-02T00:18:04.742Z,990.30
2019-02-02T00:19:04.737Z,990.35
2019-02-02T00:20:04.712Z,990.30
2019-02-02T00:21:04.717Z,990.29
2019-02-02T00:22:04.705Z,990.29
2019-02-02T00:23:04.700Z,990.32
2019-02-02T00:24:04.674Z,990.34
2019-02-02T00:25:04.660Z,990.34
2019-02-02T00:26:04.651Z,990.30
2019-02-02T00:27:04.645Z,990.28
2019-02-02T00:28:04.629Z,990.25
2019-02-02T00:29:04.614Z,990.30
2019-02-02T00:30:04.608Z,990.25
2019-02-02T00:31:04.593Z,990.28
2019-02-02T00:32:04.591Z,990.21
2019-02-02T00:33:04.575Z,990.20
2019-02-02T00:34:04.567Z,990.20
2019-02-02T00:35:04.548Z,990.23
2019-02-02T00:36:04.543Z,990.21
2019-02-02T00:37:04.535Z,990.19
2019-02-02T00:38:04.557Z,990.22
2019-02-02T00:39:04.511Z,990.23
2019-02-02T00:40:04.492Z,990.16
2019-02-02T00:41:04.483Z,990.21
2019-02-02T00:42:04.470Z,990.18
2019-02-02T00:43:04.463Z,990.20
2019-02-02T00:44:04.487Z,990.12
2019-02-02T00:45:04.443Z,990.13
2019-02-02T00:46:04.435Z,990.10
2019-02-02T00:47:04.416Z,990.11
2019-02-02T00:48:04.406Z,990.17
2019-02-02T00:49:04.407Z,990.18
2019-02-02T00:50:04.414Z,990.21
2019-02-02T00:51:04.391Z,990.26
2019-02-02T00:52:04.360Z,990.28
2019-02-02T00:53:04.350Z,990.30
2019-02-02T00:54:04.356Z,990.30
2019-02-02T00:55:04.332Z,990.35
2019-02-02T00:56:04.318Z,990.36
2019-02-02T00:57:04.312Z,990.41
2019-02-02T00:58:04.295Z,990.35
2019-02-02T00:59:04.299Z,990.40
2019-02-02T01:00:04.285Z,990.45
2019-02-02T01:01:04.277Z,990.44
2019-02-02T01:02:04.259Z,990.42
2019-02-02T01:03:04.248Z,990.43
2019-02-02T01:04:04.230Z,990.49
2019-02-02T01:05:04.255Z,990.46
2019-02-02T01:06:05.007Z,990.48
2019-02-02T01:07:04.197Z,990.50
2019-02-02T01:08:04.193Z,990.49
2019-02-02T01:09:04.176Z,990.50
2019-02-02T01:10:04.165Z,990.50
2019-02-02T01:11:04.207Z,990.51
2019-02-02T01:12:04.144Z,990.53
2019-02-02T01:13:04.217Z,990.50
2019-02-02T01:14:04.135Z,990.47
2019-02-02T01:15:04.120Z,990.45
2019-02-02T01:16:04.144Z,990.40
2019-02-02T01:17:04.096Z,990.42
2019-02-02T01:18:04.077Z,990.36
2019-02-02T01:19:04.069Z,990.40
2019-02-02T01:20:04.055Z,990.42
2019-02-02T01:21:04.051Z,990.35
2019-02-02T01:22:04.062Z,990.41
2019-02-02T01:23:04.025Z,990.43
2019-02-02T01:24:04.014Z,990.43
2019-02-02T01:25:04.005Z,990.50
2019-02-02T01:26:03.988Z,990.48
2019-02-02T01:27:04.034Z,990.49
2019-02-02T01:28:05.583Z,990.49
2019-02-02T01:29:03.958Z,990.49
2019-02-02T01:30:03.959Z,990.49
2019-02-02T01:31:03.938Z,990.47
2019-02-02T01:32:03.926Z,990.47
2019-02-02T01:33:03.950Z,990.47
2019-02-02T01:34:03.902Z,990.45
2019-02-02T01:35:03.890Z,990.46
2019-02-02T01:36:03.881Z,990.45
2019-02-02T01:37:03.867Z,990.40
2019-02-02T01:38:03.856Z,990.39
2019-02-02T01:39:03.854Z,990.39
2019-02-02T01:40:03.837Z,990.39
2019-02-02T01:41:03.823Z,990.38
2019-02-02T01:42:03.824Z,990.42
2019-02-02T01:43:03.816Z,990.42
2019-02-02T01:44:03.819Z,990.43
2019-02-02T01:45:03.781Z,990.37
2019-02-02T01:46:03.781Z,990.43
2019-02-02T01:47:03.758Z,990.43
2019-02-02T01:48:03.787Z,990.40
2019-02-02T01:49:03.759Z,990.45
2019-02-02T01:50:03.730Z,990.44
2019-02-02T01:51:03.718Z,990.48
2019-02-02T01:52:03.710Z,990.47
2019-02-02T01:53:03.699Z,990.41
2019-02-02T01:54:03.692Z,990.45
2019-02-02T01:55:03.697Z,990.39
2019-02-02T01:56:03.657Z,990.38
2019-02-02T01:57:03.664Z,990.37
2019-02-02T01:58:03.671Z,990.33
2019-02-02T01:59:03.636Z,990.32
2019-02-02T02:00:03.620Z,990.29
2019-02-02T02:01:03.661Z,990.23
2019-02-02T02:02:03.604Z,990.19
2019-02-02T02:03:03.583Z,990.14
2019-02-02T02:04:03.626Z,990.16
2019-02-02T02:05:03.559Z,990.14
2019-02-02T02:06:03.549Z,990.15
2019-02-02T02:07:03.550Z,990.17
2019-02-02T02:08:03.527Z,990.17
2019-02-02T02:09:03.527Z,990.31
2019-02-02T02:10:03.544Z,990.31
2019-02-02T02:11:03.512Z,990.33
2019-02-02T02:12:03.485Z,990.36
2019-02-02T02:13:03.472Z,990.33
2019-02-02T02:14:03.465Z,990.32
2019-02-02T02:15:03.488Z,990.36
2019-02-02T02:16:03.443Z,990.36
2019-02-02T02:17:03.433Z,990.37
2019-02-02T02:18:03.423Z,990.34
2019-02-02T02:19:03.410Z,990.33
2019-02-02T02:20:03.452Z,990.33
2019-02-02T02:21:03.389Z,990.41
2019-02-02T02:22:03.374Z,990.38
2019-02-02T02:23:03.363Z,990.35
2019-02-02T02:24:03.358Z,990.32
2019-02-02T02:25:03.379Z,990.30
2019-02-02T02:26:03.340Z,990.27
2019-02-02T02:27:03.325Z,990.27
2019-02-02T02:28:03.315Z,990.21
2019-02-02T02:29:03.304Z,990.22
2019-02-02T02:30:03.313Z,990.18
2019-02-02T02:31:03.276Z,990.18
2019-02-02T02:32:03.312Z,990.22
2019-02-02T02:33:03.264Z,990.17
2019-02-02T02:34:03.469Z,990.14
2019-02-02T02:35:03.239Z,990.09
2019-02-02T02:36:03.236Z,990.13
2019-02-02T02:37:04.155Z,990.03
2019-02-02T02:38:03.243Z,990.01
2019-02-02T02:39:03.190Z,990.03
2019-02-02T02:40:03.180Z,990.02
2019-02-02T02:41:03.168Z,990.01
2019-02-02T02:42:03.156Z,990.01
2019-02-02T02:43:03.159Z,989.96
2019-02-02T02:44:03.133Z,989.95
2019-02-02T02:45:03.121Z,990.00
2019-02-02T02:46:03.157Z,990.00
2019-02-02T02:47:03.107Z,990.08
2019-02-02T02:48:03.089Z,990.06
2019-02-02T02:49:03.082Z,990.07
2019-02-02T02:50:03.074Z,990.05
2019-02-02T02:51:03.060Z,990.02
2019-02-02T02:52:03.103Z,990.03
2019-02-02T02:53:03.043Z,990.01
2019-02-02T02:54:03.032Z,990.04
2019-02-02T02:55:03.023Z,990.05
2019-02-02T02:56:03.001Z,990.07
2019-02-02T02:57:02.996Z,990.08
2019-02-02T02:58:03.038Z,990.07
2019-02-02T02:59:02.971Z,990.09
2019-02-02T03:00:02.965Z,990.08
2019-02-02T03:01:02.945Z,990.03
2019-02-02T03:02:02.940Z,990.00
2019-02-02T03:03:02.980Z,989.95
2019-02-02T03:04:02.919Z,989.90
2019-02-02T03:05:02.907Z,989.85
2019-02-02T03:06:02.898Z,989.88
2019-02-02T03:07:02.880Z,989.86
2019-02-02T03:08:02.914Z,989.89
2019-02-02T03:09:02.858Z,989.88
2019-02-02T03:10:02.885Z,989.86
2019-02-02T03:11:02.863Z,989.86
2019-02-02T03:12:02.846Z,989.83
2019-02-02T03:13:02.820Z,989.84
2019-02-02T03:14:02.808Z,989.78
2019-02-02T03:15:02.881Z,989.74
2019-02-02T03:16:02.785Z,989.70
2019-02-02T03:17:02.772Z,989.73
2019-02-02T03:18:02.769Z,989.75
2019-02-02T03:19:02.752Z,989.81
2019-02-02T03:20:02.747Z,989.82
2019-02-02T03:21:02.875Z,989.85
2019-02-02T03:22:02.723Z,989.89
2019-02-02T03:23:02.707Z,989.81
2019-02-02T03:24:02.744Z,989.84
2019-02-02T03:25:02.690Z,989.87
2019-02-02T03:26:02.719Z,989.82
2019-02-02T03:27:02.667Z,989.76
2019-02-02T03:28:02.655Z,989.65
2019-02-02T03:29:02.644Z,989.64
2019-02-02T03:30:02.638Z,989.66
2019-02-02T03:31:02.670Z,989.63
2019-02-02T03:32:02.629Z,989.65
2019-02-02T03:33:02.596Z,989.64
2019-02-02T03:34:02.589Z,989.63
2019-02-02T03:35:02.572Z,989.58
2019-02-02T03:36:02.580Z,989.61
2019-02-02T03:37:02.548Z,989.64
2019-02-02T03:38:02.630Z,989.65
2019-02-02T03:39:02.543Z,989.64
2019-02-02T03:40:02.534Z,989.66
2019-02-02T03:41:02.533Z,989.67
2019-02-02T03:42:02.493Z,989.74
2019-02-02T03:43:02.496Z,989.79
2019-02-02T03:44:02.480Z,989.80
2019-02-02T03:45:02.463Z,989.83
2019-02-02T03:46:02.459Z,989.90
2019-02-02T03:47:02.477Z,989.87
2019-02-02T03:48:02.428Z,989.88
2019-02-02T03:49:02.418Z,989.85
2019-02-02T03:50:02.415Z,989.89
2019-02-02T03:51:02.400Z,989.85
2019-02-02T03:52:02.397Z,989.83
2019-02-02T03:53:02.399Z,989.80
2019-02-02T03:54:08.964Z,989.78
2019-02-02T03:55:03.383Z,989.83
2019-02-02T03:56:02.338Z,989.82
2019-02-02T03:57:02.339Z,989.82
2019-02-02T03:58:02.398Z,989.89
2019-02-02T03:59:06.746Z,989.88
2019-02-02T04:00:02.296Z,989.98
2019-02-02T04:01:02.295Z,990.02
2019-02-02T04:02:02.376Z,990.00
2019-02-02T04:03:02.275Z,989.96
2019-02-02T04:04:02.274Z,989.93
2019-02-02T04:05:02.238Z,989.92
2019-02-02T04:06:02.233Z,989.97
2019-02-02T04:07:02.221Z,989.95
2019-02-02T04:08:02.210Z,990.00
2019-02-02T04:09:02.251Z,990.01
2019-02-02T04:10:02.191Z,990.01
2019-02-02T04:11:02.172Z,990.02
2019-02-02T04:12:02.194Z,989.98
2019-02-02T04:13:02.155Z,990.03
2019-02-02T04:14:02.145Z,990.00
2019-02-02T04:15:02.142Z,989.96
2019-02-02T04:16:02.118Z,989.96
2019-02-02T04:17:02.107Z,989.95
2019-02-02T04:18:02.099Z,989.87
2019-02-02T04:19:02.088Z,989.87
2019-02-02T04:20:02.128Z,989.84
2019-02-02T04:21:02.080Z,989.81
2019-02-02T04:22:02.051Z,989.85
2019-02-02T04:23:02.040Z,989.97
2019-02-02T04:24:02.030Z,990.01
2019-02-02T04:25:02.206Z,990.02
2019-02-02T04:26:02.006Z,990.04
2019-02-02T04:27:02.002Z,989.99
2019-02-02T04:28:01.985Z,989.94
2019-02-02T04:29:01.976Z,989.90
2019-02-02T04:30:01.988Z,989.85
2019-02-02T04:31:01.986Z,989.85
2019-02-02T04:32:01.941Z,989.86
2019-02-02T04:33:01.938Z,989.83
2019-02-02T04:34:01.917Z,989.79
2019-02-02T04:35:01.908Z,989.78
2019-02-02T04:36:01.897Z,989.74
2019-02-02T04:37:01.891Z,989.69
2019-02-02T04:38:01.878Z,989.65
2019-02-02T04:39:01.871Z,989.63
2019-02-02T04:40:01.853Z,989.62
2019-02-02T04:41:01.887Z,989.60
2019-02-02T04:42:01.836Z,989.69
2019-02-02T04:43:02.037Z,989.76
2019-02-02T04:44:01.813Z,989.83
2019-02-02T04:45:01.797Z,989.85
2019-02-02T04:46:01.786Z,989.86
2019-02-02T04:47:01.800Z,989.92
2019-02-02T04:48:01.797Z,989.92
2019-02-02T04:49:01.753Z,990.01
2019-02-02T04:50:01.745Z,990.02
2019-02-02T04:51:01.743Z,990.06
2019-02-02T04:52:01.718Z,990.05
2019-02-02T04:53:01.732Z,990.10
2019-02-02T04:54:01.696Z,990.03
2019-02-02T04:55:01.695Z,990.04
2019-02-02T04:56:01.715Z,989.96
2019-02-02T04:57:01.663Z,989.93
2019-02-02T04:58:01.742Z,989.96
2019-02-02T04:59:01.649Z,989.91
2019-02-02T05:00:01.691Z,989.82
2019-02-02T05:01:01.640Z,989.74
2019-02-02T05:02:01.734Z,989.66
2019-02-02T05:03:01.652Z,989.53
2019-02-02T05:04:01.588Z,989.50
2019-02-02T05:05:01.584Z,989.43
2019-02-02T05:06:01.619Z,989.40
2019-02-02T05:07:01.552Z,989.41
2019-02-02T05:08:01.578Z,989.42
2019-02-02T05:09:01.532Z,989.38
2019-02-02T05:10:01.519Z,989.32
2019-02-02T05:11:01.519Z,989.31
2019-02-02T05:12:01.499Z,989.38
2019-02-02T05:13:01.490Z,989.42
2019-02-02T05:14:01.492Z,989.51
2019-02-02T05:15:01.463Z,989.52
2019-02-02T05:16:01.461Z,989.50
2019-02-02T05:17:01.443Z,989.44
2019-02-02T05:18:01.438Z,989.38
2019-02-02T05:19:01.469Z,989.42
2019-02-02T05:20:01.412Z,989.43
2019-02-02T05:21:01.405Z,989.42
2019-02-02T05:22:01.390Z,989.43
2019-02-02T05:23:01.379Z,989.53
2019-02-02T05:24:01.402Z,989.57
2019-02-02T05:25:01.373Z,989.60
2019-02-02T05:26:01.348Z,989.55
2019-02-02T05:27:01.335Z,989.56
2019-02-02T05:28:01.321Z,989.64
2019-02-02T05:29:01.314Z,989.64
2019-02-02T05:30:01.331Z,989.70
2019-02-02T05:31:01.305Z,989.71
2019-02-02T05:32:01.285Z,989.71
2019-02-02T05:33:01.263Z,989.70
2019-02-02T05:34:01.252Z,989.72
2019-02-02T05:35:01.247Z,989.75
2019-02-02T05:36:01.244Z,989.72
2019-02-02T05:37:01.222Z,989.73
2019-02-02T05:38:01.214Z,989.72
2019-02-02T05:39:01.199Z,989.61
2019-02-02T05:40:01.187Z,989.58
2019-02-02T05:41:01.194Z,989.48
2019-02-02T05:42:01.186Z,989.49
2019-02-02T05:43:01.157Z,989.42
2019-02-02T05:44:01.141Z,989.45
2019-02-02T05:45:01.134Z,989.46
2019-02-02T05:46:01.134Z,989.47
2019-02-02T05:47:01.115Z,989.50
2019-02-02T05:48:01.102Z,989.52
2019-02-02T05:49:01.091Z,989.61
2019-02-02T05:50:01.133Z,989.64
2019-02-02T05:51:01.099Z,989.74
2019-02-02T05:52:01.054Z,989.71
2019-02-02T05:53:01.044Z,989.77
2019-02-02T05:54:01.033Z,989.74
2019-02-02T05:55:01.025Z,989.80
2019-02-02T05:56:01.051Z,989.80
2019-02-02T05:57:01.002Z,989.83
2019-02-02T05:58:00.986Z,989.81
2019-02-02T05:59:00.976Z,989.88
2019-02-02T06:00:00.971Z,989.86
2019-02-02T06:01:00.990Z,989.92
2019-02-02T06:02:00.945Z,989.92
2019-02-02T06:03:00.937Z,989.94
2019-02-02T06:04:00.925Z,989.95
2019-02-02T06:05:00.914Z,989.93
2019-02-02T06:06:00.915Z,989.90
2019-02-02T06:07:00.892Z,989.92
2019-02-02T06:08:00.885Z,989.91
2019-02-02T06:09:00.869Z,989.98
2019-02-02T06:10:00.853Z,990.06
2019-02-02T06:11:00.899Z,990.09
2019-02-02T06:12:00.831Z,990.11
2019-02-02T06:13:00.831Z,990.07
2019-02-02T06:14:00.825Z,990.08
2019-02-02T06:15:00.854Z,990.07
2019-02-02T06:16:00.803Z,990.09
2019-02-02T06:17:00.832Z,990.10
2019-02-02T06:18:00.794Z,990.10
2019-02-02T06:19:00.755Z,990.08
2019-02-02T06:20:00.751Z,990.03
2019-02-02T06:21:00.739Z,990.04
2019-02-02T06:22:00.777Z,990.02
2019-02-02T06:23:00.711Z,990.06
2019-02-02T06:24:00.704Z,990.07
2019-02-02T06:25:00.693Z,990.07
2019-02-02T06:26:00.687Z,990.12
2019-02-02T06:27:00.705Z,990.14
2019-02-02T06:28:00.654Z,990.16
2019-02-02T06:29:00.644Z,990.17
2019-02-02T06:30:04.607Z,990.21
2019-02-02T06:31:00.621Z,990.19
2019-02-02T06:32:10.539Z,990.18
2019-02-02T06:33:01.640Z,990.17
2019-02-02T06:34:00.593Z,990.13
2019-02-02T06:35:00.599Z,990.14
2019-02-02T06:36:03.390Z,990.15
2019-02-02T06:37:00.558Z,990.15
2019-02-02T06:38:00.554Z,990.20
2019-02-02T06:39:00.577Z,990.23
2019-02-02T06:40:00.553Z,990.27
2019-02-02T06:41:00.517Z,990.26
2019-02-02T06:42:00.507Z,990.23
2019-02-02T06:43:00.488Z,990.26
2019-02-02T06:44:00.484Z,990.28
2019-02-02T06:45:00.480Z,990.29
2019-02-02T06:46:00.461Z,990.28
2019-02-02T06:47:00.449Z,990.32
2019-02-02T06:48:00.465Z,990.27
2019-02-02T06:49:01.552Z,990.24
2019-02-02T06:50:00.492Z,990.19
2019-02-02T06:51:00.407Z,990.19
2019-02-02T06:52:00.391Z,990.16
2019-02-02T06:53:00.380Z,990.19
2019-02-02T06:54:00.373Z,990.21
2019-02-02T06:55:00.472Z,990.19
2019-02-02T06:56:00.358Z,990.17
2019-02-02T06:57:00.341Z,990.19
2019-02-02T06:58:00.329Z,990.14
2019-02-02T06:59:00.315Z,990.11
2019-02-02T07:00:00.361Z,990.05
2019-02-02T07:01:00.297Z,989.94
2019-02-02T07:02:00.287Z,989.94
2019-02-02T07:03:00.269Z,989.91
2019-02-02T07:04:00.269Z,989.87
2019-02-02T07:05:00.320Z,989.88
2019-02-02T07:06:00.281Z,989.88
2019-02-02T07:07:00.225Z,989.90
2019-02-02T07:08:00.224Z,989.91
2019-02-02T07:09:00.209Z,989.93
2019-02-02T07:10:00.197Z,989.91
2019-02-02T07:11:00.181Z,989.99
2019-02-02T07:12:00.202Z,990.01
2019-02-02T07:13:00.159Z,990.03
2019-02-02T07:14:00.148Z,990.01
2019-02-02T07:15:00.687Z,990.04
2019-02-02T07:16:00.220Z,990.01
2019-02-02T07:17:00.124Z,990.05
2019-02-02T07:18:00.167Z,990.11
2019-02-02T07:19:00.095Z,990.12
2019-02-02T07:20:00.139Z,990.14
2019-02-02T07:21:00.070Z,990.13
2019-02-02T07:22:00.065Z,990.18
2019-02-02T07:23:00.066Z,990.24
2019-02-02T07:24:00.046Z,990.26
2019-02-02T07:25:00.049Z,990.29
2019-02-02T07:26:00.020Z,990.38
2019-02-02T07:27:00.007Z,990.41
2019-02-02T07:28:00.013Z,990.42
2019-02-02T07:28:59.988Z,990.47
2019-02-02T07:29:59.972Z,990.51
2019-02-02T07:30:59.986Z,990.51
2019-02-02T07:31:59.949Z,990.56
2019-02-02T07:32:59.981Z,990.56
2019-02-02T07:33:59.927Z,990.59
2019-02-02T07:34:59.917Z,990.60
2019-02-02T07:35:59.905Z,990.56
2019-02-02T07:36:59.894Z,990.57
2019-02-02T07:37:59.893Z,990.57
2019-02-02T07:38:59.890Z,990.54
2019-02-02T07:39:59.926Z,990.57
2019-02-02T07:40:59.860Z,990.59
2019-02-02T07:41:59.840Z,990.54
2019-02-02T07:42:59.834Z,990.58
2019-02-02T07:43:59.823Z,990.56
2019-02-02T07:44:59.845Z,990.59
2019-02-02T07:45:59.800Z,990.56
2019-02-02T07:46:59.785Z,990.59
2019-02-02T07:47:59.779Z,990.65
2019-02-02T07:48:59.762Z,990.63
2019-02-02T07:49:59.808Z,990.60
2019-02-02T07:50:59.747Z,990.61
2019-02-02T07:51:59.729Z,990.61
2019-02-02T07:52:59.724Z,990.66
2019-02-02T07:53:59.834Z,990.70
2019-02-02T07:54:59.701Z,990.73
2019-02-02T07:55:59.725Z,990.76
2019-02-02T07:56:59.681Z,990.80
2019-02-02T07:57:59.677Z,990.70
2019-02-02T07:58:59.657Z,990.69
2019-02-02T07:59:59.646Z,990.67
2019-02-02T08:00:59.631Z,990.59
2019-02-02T08:01:59.646Z,990.60
2019-02-02T08:03:00.193Z,990.59
2019-02-02T08:03:59.610Z,990.63
2019-02-02T08:04:59.652Z,990.67
2019-02-02T08:05:59.644Z,990.62
2019-02-02T08:06:59.566Z,990.58
2019-02-02T08:07:59.582Z,990.53
2019-02-02T08:08:59.549Z,990.50
2019-02-02T08:09:59.532Z,990.47
2019-02-02T08:10:59.526Z,990.49
2019-02-02T08:11:59.512Z,990.54
2019-02-02T08:12:59.522Z,990.57
2019-02-02T08:13:59.489Z,990.66
2019-02-02T08:14:59.483Z,990.64
2019-02-02T08:15:59.475Z,990.66
2019-02-02T08:16:59.458Z,990.64
2019-02-02T08:17:59.452Z,990.63
2019-02-02T08:18:59.449Z,990.68
2019-02-02T08:19:59.429Z,990.70
2019-02-02T08:20:59.420Z,990.81
2019-02-02T08:21:59.410Z,990.86
2019-02-02T08:22:59.404Z,990.93
2019-02-02T08:23:59.507Z,991.02
2019-02-02T08:24:59.375Z,991.06
2019-02-02T08:25:59.361Z,991.06
2019-02-02T08:26:59.346Z,991.03
2019-02-02T08:27:59.342Z,991.05
2019-02-02T08:28:59.341Z,991.03
2019-02-02T08:29:59.320Z,990.99
2019-02-02T08:30:59.316Z,990.93
2019-02-02T08:31:59.297Z,990.91
2019-02-02T08:32:59.299Z,990.94
2019-02-02T08:33:59.270Z,990.89
2019-02-02T08:34:59.280Z,990.90
2019-02-02T08:35:59.253Z,990.84
2019-02-02T08:36:59.251Z,990.87
2019-02-02T08:37:59.230Z,990.88
2019-02-02T08:39:00.210Z,990.85
2019-02-02T08:39:59.208Z,990.88
2019-02-02T08:40:59.201Z,990.91
2019-02-02T08:41:59.186Z,990.99
2019-02-02T08:42:59.177Z,990.99
2019-02-02T08:43:59.175Z,990.97
2019-02-02T08:44:59.148Z,990.97
2019-02-02T08:45:59.179Z,990.91
2019-02-02T08:46:59.133Z,990.91
2019-02-02T08:47:59.120Z,990.95
2019-02-02T08:48:59.693Z,990.92
2019-02-02T08:49:59.093Z,990.91
2019-02-02T08:50:59.085Z,990.93
2019-02-02T08:51:59.084Z,990.88
2019-02-02T08:52:59.067Z,990.83
2019-02-02T08:53:59.081Z,990.84
2019-02-02T08:54:59.055Z,990.84
2019-02-02T08:55:59.034Z,990.89
2019-02-02T08:56:59.027Z,991.00
2019-02-02T08:57:59.006Z,991.13
2019-02-02T08:58:59.001Z,991.19
2019-02-02T08:59:59.882Z,991.18
2019-02-02T09:01:04.063Z,991.15
2019-02-02T09:01:59.980Z,991.10
2019-02-02T09:02:58.959Z,991.08
2019-02-02T09:03:58.956Z,991.07
2019-02-02T09:04:59.000Z,991.00
2019-02-02T09:05:58.972Z,991.07
2019-02-02T09:06:58.913Z,991.03
2019-02-02T09:07:58.906Z,991.11
2019-02-02T09:08:58.891Z,991.18
2019-02-02T09:09:58.889Z,991.24
2019-02-02T09:10:58.878Z,991.28
2019-02-02T09:11:58.858Z,991.29
2019-02-02T09:12:58.841Z,991.33
2019-02-02T09:13:58.833Z,991.37
2019-02-02T09:14:58.820Z,991.32
2019-02-02T09:15:58.854Z,991.31
2019-02-02T09:16:58.798Z,991.29
2019-02-02T09:17:58.793Z,991.31
2019-02-02T09:18:58.780Z,991.29
2019-02-02T09:19:58.763Z,991.36
2019-02-02T09:20:58.753Z,991.40
2019-02-02T09:21:58.774Z,991.44
2019-02-02T09:23:05.955Z,991.45
2019-02-02T09:23:59.718Z,991.45
2019-02-02T09:24:58.709Z,991.41
2019-02-02T09:25:58.734Z,991.46
2019-02-02T09:26:58.690Z,991.44
2019-02-02T09:27:58.704Z,991.47
2019-02-02T09:28:58.671Z,991.52
2019-02-02T09:29:58.664Z,991.48
2019-02-02T09:30:58.648Z,991.47
2019-02-02T09:31:58.632Z,991.48
2019-02-02T09:32:58.647Z,991.44
2019-02-02T09:33:58.658Z,991.37
2019-02-02T09:34:58.607Z,991.33
2019-02-02T09:35:58.594Z,991.40
2019-02-02T09:36:58.583Z,991.35
2019-02-02T09:37:58.566Z,991.36
2019-02-02T09:38:58.560Z,991.46
2019-02-02T09:39:58.555Z,991.42
2019-02-02T09:40:58.537Z,991.51
2019-02-02T09:41:58.529Z,991.50
2019-02-02T09:42:58.525Z,991.42
2019-02-02T09:43:58.506Z,991.40
2019-02-02T09:44:58.499Z,991.36
2019-02-02T09:45:58.534Z,991.36
2019-02-02T09:46:58.470Z,991.36
2019-02-02T09:47:58.457Z,991.37
2019-02-02T09:48:58.448Z,991.42
2019-02-02T09:49:58.440Z,991.43
2019-02-02T09:50:58.437Z,991.45
2019-02-02T09:51:58.420Z,991.43
2019-02-02T09:52:58.413Z,991.49
2019-02-02T09:53:58.395Z,991.44
2019-02-02T09:54:58.379Z,991.50
2019-02-02T09:55:58.392Z,991.53
2019-02-02T09:56:58.362Z,991.56
2019-02-02T09:57:58.353Z,991.49
2019-02-02T09:58:59.197Z,991.50
2019-02-02T09:59:58.333Z,991.44
2019-02-02T10:00:58.312Z,991.46
2019-02-02T10:01:58.310Z,991.48
2019-02-02T10:02:58.296Z,991.49
2019-02-02T10:03:58.290Z,991.51
2019-02-02T10:04:58.279Z,991.48
2019-02-02T10:05:58.258Z,991.51
2019-02-02T10:06:58.275Z,991.49
2019-02-02T10:07:58.236Z,991.49
2019-02-02T10:08:58.229Z,991.44
2019-02-02T10:09:58.217Z,991.49
2019-02-02T10:10:58.202Z,991.52
2019-02-02T10:11:58.204Z,991.55
2019-02-02T10:12:58.199Z,991.52
2019-02-02T10:13:58.168Z,991.48
2019-02-02T10:14:58.157Z,991.43
2019-02-02T10:15:58.152Z,991.40
2019-02-02T10:16:58.140Z,991.39
2019-02-02T10:17:58.141Z,991.42
2019-02-02T10:18:58.149Z,991.39
2019-02-02T10:19:58.106Z,991.51
2019-02-02T10:21:04.107Z,991.53
2019-02-02T10:21:59.081Z,991.51
2019-02-02T10:22:58.113Z,991.55
2019-02-02T10:23:58.058Z,991.52
2019-02-02T10:24:58.052Z,991.53
2019-02-02T10:25:58.040Z,991.57
2019-02-02T10:26:58.030Z,991.53
2019-02-02T10:27:58.013Z,991.55
2019-02-02T10:28:58.105Z,991.51
2019-02-02T10:29:57.997Z,991.52
2019-02-02T10:30:57.982Z,991.58
2019-02-02T10:31:57.974Z,991.58
2019-02-02T10:32:57.963Z,991.60
2019-02-02T10:33:57.967Z,991.54
2019-02-02T10:34:58.028Z,991.57
2019-02-02T10:35:58.086Z,991.41
2019-02-02T10:36:57.914Z,991.40
2019-02-02T10:37:57.906Z,991.33
2019-02-02T10:38:57.906Z,991.31
2019-02-02T10:39:57.892Z,991.33
2019-02-02T10:40:57.886Z,991.34
2019-02-02T10:41:57.874Z,991.36
2019-02-02T10:42:57.853Z,991.41
2019-02-02T10:43:57.838Z,991.40
2019-02-02T10:44:57.945Z,991.46
2019-02-02T10:45:57.825Z,991.48
2019-02-02T10:46:57.804Z,991.42
2019-02-02T10:47:57.807Z,991.42
2019-02-02T10:48:57.785Z,991.42
2019-02-02T10:49:57.781Z,991.42
2019-02-02T10:50:58.292Z,991.44
2019-02-02T10:51:57.750Z,991.44
2019-02-02T10:52:57.738Z,991.46
2019-02-02T10:53:57.729Z,991.49
2019-02-02T10:54:57.716Z,991.50
2019-02-02T10:55:57.720Z,991.50
2019-02-02T10:56:57.697Z,991.50
2019-02-02T10:57:57.690Z,991.50
2019-02-02T10:58:57.674Z,991.52
2019-02-02T10:59:57.661Z,991.50
2019-02-02T11:00:57.718Z,991.51
2019-02-02T11:01:57.647Z,991.54
2019-02-02T11:02:57.628Z,991.56
2019-02-02T11:03:57.623Z,991.56
2019-02-02T11:04:57.629Z,991.55
2019-02-02T11:05:57.653Z,991.53
2019-02-02T11:06:57.603Z,991.54
2019-02-02T11:07:57.591Z,991.54
2019-02-02T11:08:57.742Z,991.55
2019-02-02T11:09:57.659Z,991.59
2019-02-02T11:10:58.202Z,991.60
2019-02-02T11:11:57.644Z,991.55
2019-02-02T11:12:57.619Z,991.64
2019-02-02T11:13:57.560Z,991.57
2019-02-02T11:14:57.502Z,991.58
2019-02-02T11:15:57.524Z,991.54
2019-02-02T11:16:57.513Z,991.54
2019-02-02T11:17:57.608Z,991.54
2019-02-02T11:18:57.462Z,991.54
2019-02-02T11:19:57.459Z,991.52
2019-02-02T11:20:57.698Z,991.59
2019-02-02T11:21:57.425Z,991.52
2019-02-02T11:22:57.421Z,991.54
2019-02-02T11:23:57.509Z,991.51
2019-02-02T11:24:57.464Z,991.51
2019-02-02T11:25:57.532Z,991.49
2019-02-02T11:26:57.502Z,991.55
2019-02-02T11:27:57.462Z,991.54
2019-02-02T11:28:57.383Z,991.48
2019-02-02T11:29:57.490Z,991.48
2019-02-02T11:30:57.324Z,991.45
2019-02-02T11:32:02.850Z,991.48
2019-02-02T11:32:58.308Z,991.51
2019-02-02T11:33:57.285Z,991.49
2019-02-02T11:34:57.276Z,991.45
2019-02-02T11:35:57.276Z,991.41
2019-02-02T11:36:57.259Z,991.41
2019-02-02T11:37:57.298Z,991.39
2019-02-02T11:38:59.458Z,991.35
2019-02-02T11:39:57.225Z,991.32
2019-02-02T11:40:57.215Z,991.37
2019-02-02T11:41:57.199Z,991.41
2019-02-02T11:42:57.188Z,991.43
2019-02-02T11:43:57.226Z,991.42
2019-02-02T11:44:57.185Z,991.43
2019-02-02T11:45:57.158Z,991.37
2019-02-02T11:46:57.146Z,991.37
2019-02-02T11:47:57.132Z,991.34
2019-02-02T11:48:57.126Z,991.35
2019-02-02T11:49:57.126Z,991.36
2019-02-02T11:50:57.100Z,991.40
2019-02-02T11:51:57.087Z,991.41
2019-02-02T11:52:57.083Z,991.42
2019-02-02T11:53:57.069Z,991.45
2019-02-02T11:54:57.064Z,991.44
2019-02-02T11:55:57.049Z,991.49
2019-02-02T11:56:57.034Z,991.49
2019-02-02T11:57:57.034Z,991.54
2019-02-02T11:58:57.015Z,991.55
2019-02-02T11:59:57.013Z,991.52
2019-02-02T12:00:57.016Z,991.52
2019-02-02T12:01:56.985Z,991.55
2019-02-02T12:02:56.974Z,991.50
2019-02-02T12:03:56.956Z,991.54
2019-02-02T12:04:56.993Z,991.61
2019-02-02T12:05:56.940Z,991.72
2019-02-02T12:06:56.928Z,991.79
2019-02-02T12:07:56.912Z,991.86
2019-02-02T12:08:56.912Z,991.88
2019-02-02T12:09:56.890Z,991.87
2019-02-02T12:10:56.888Z,991.82
2019-02-02T12:11:56.866Z,991.78
2019-02-02T12:12:56.881Z,991.82
2019-02-02T12:13:56.852Z,991.82
2019-02-02T12:14:57.127Z,991.81
2019-02-02T12:15:56.838Z,991.82
2019-02-02T12:16:56.842Z,991.84
2019-02-02T12:17:56.803Z,991.87
2019-02-02T12:18:56.796Z,991.88
2019-02-02T12:19:56.782Z,991.90
2019-02-02T12:20:56.767Z,991.85
2019-02-02T12:21:56.764Z,991.82
2019-02-02T12:22:56.757Z,991.85
2019-02-02T12:23:56.733Z,991.83
2019-02-02T12:24:56.724Z,991.80
2019-02-02T12:25:56.717Z,991.81
2019-02-02T12:26:56.702Z,991.80
2019-02-02T12:27:56.720Z,991.80